Time;durP1;ratioP1;P1;durP2;ratioP2;P2;SDS_P1;SDS_P2;PMS_P1;PMS_P2;Temp;Humidity;BMP_temperature;BMP_pressure;BME280_temperature;BME280_humidity;BME280_pressure;Samples;Min_cycle;Max_cycle;Signal;HPM_P1;HPM_P2
2023/05/30 00:01:45;;;;;;;5.20;1.70;;;13.50;44.10;;;;;;5071736;28;20257;-73
2023/05/30 00:04:11;;;;;;;4.63;2.37;;;13.50;44.00;;;;;;5070154;28;20859;-74
2023/05/30 00:06:36;;;;;;;8.37;2.50;;;13.60;43.70;;;;;;5059952;28;20412;-75
2023/05/30 00:09:02;;;;;;;9.47;1.97;;;13.50;43.80;;;;;;5078208;28;20205;-75
2023/05/30 00:11:29;;;;;;;8.53;2.67;;;13.40;43.90;;;;;;5079392;28;20209;-75
2023/05/30 00:13:58;;;;;;;6.80;2.00;;;13.40;43.90;;;;;;5072167;28;20412;-73
2023/05/30 00:16:23;;;;;;;8.87;2.70;;;13.40;43.90;;;;;;5078845;28;20423;-75
2023/05/30 00:18:52;;;;;;;3.97;1.80;;;13.40;43.90;;;;;;5079115;28;20846;-74
2023/05/30 00:21:18;;;;;;;5.13;2.47;;;13.30;43.50;;;;;;5079779;28;20257;-74
2023/05/30 00:23:45;;;;;;;6.37;2.17;;;13.30;43.50;;;;;;5078861;28;20407;-74
2023/05/30 00:26:11;;;;;;;5.73;1.83;;;13.30;43.70;;;;;;5078379;28;20553;-75
2023/05/30 00:28:38;;;;;;;5.03;1.80;;;13.30;44.00;;;;;;5062447;28;20809;-74
2023/05/30 00:31:04;;;;;;;8.40;2.30;;;13.20;44.00;;;;;;5052474;28;20749;-73
2023/05/30 00:33:30;;;;;;;3.83;1.80;;;13.00;44.30;;;;;;5078186;28;20537;-74
2023/05/30 00:35:56;;;;;;;4.87;2.13;;;13.00;44.70;;;;;;5079657;28;20432;-75
2023/05/30 00:38:22;;;;;;;4.60;2.10;;;13.10;44.70;;;;;;5053059;28;20181;-75
2023/05/30 00:40:47;;;;;;;3.23;2.00;;;13.10;44.80;;;;;;5061288;28;20265;-73
2023/05/30 00:43:14;;;;;;;7.67;2.70;;;13.00;44.80;;;;;;5073483;28;20453;-74
2023/05/30 00:45:40;;;;;;;6.80;2.90;;;13.10;45.00;;;;;;5078309;28;20212;-74
2023/05/30 00:48:05;;;;;;;9.13;2.70;;;13.00;45.20;;;;;;5060081;28;20428;-73
2023/05/30 00:50:33;;;;;;;4.57;2.20;;;12.90;45.30;;;;;;5077507;28;20476;-74
2023/05/30 00:53:00;;;;;;;3.50;1.70;;;12.90;45.20;;;;;;5078345;28;20311;-74
2023/05/30 00:55:26;;;;;;;9.33;2.40;;;12.90;45.50;;;;;;5060782;28;20407;-74
2023/05/30 00:57:52;;;;;;;6.93;2.50;;;12.80;45.40;;;;;;5076161;28;20424;-73
2023/05/30 01:00:19;;;;;;;8.23;2.30;;;12.70;45.50;;;;;;5045175;28;20447;-74
2023/05/30 01:02:46;;;;;;;5.00;1.93;;;12.60;46.00;;;;;;5056290;28;20193;-74
2023/05/30 01:05:14;;;;;;;4.07;1.87;;;12.40;46.10;;;;;;5060054;28;20732;-73
2023/05/30 01:07:43;;;;;;;5.80;1.90;;;12.30;46.50;;;;;;5065195;28;20415;-74
2023/05/30 01:10:13;;;;;;;6.70;2.23;;;12.20;46.90;;;;;;5059982;28;20511;-75
2023/05/30 01:13:13;;;;;;;6.67;2.53;;;12.20;47.20;;;;;;5068275;28;20820;-75
2023/05/30 01:15:44;;;;;;;14.77;2.50;;;12.10;47.30;;;;;;5037231;28;20508;-75
2023/05/30 01:18:24;;;;;;;4.90;3.53;;;12.10;47.40;;;;;;5050306;28;20898;-73
2023/05/30 01:20:54;;;;;;;5.27;2.43;;;12.10;47.60;;;;;;5068563;28;20506;-75
2023/05/30 01:23:41;;;;;;;5.50;2.20;;;12.00;47.80;;;;;;5059812;28;20423;-74
2023/05/30 01:26:23;;;;;;;5.43;2.30;;;11.90;47.90;;;;;;5077134;28;20769;-74
2023/05/30 01:28:51;;;;;;;8.13;2.40;;;12.00;48.00;;;;;;5044553;28;20423;-74
2023/05/30 01:31:18;;;;;;;5.27;1.97;;;12.10;48.10;;;;;;5050351;28;20424;-73
2023/05/30 01:33:45;;;;;;;11.03;2.53;;;12.10;48.40;;;;;;5059835;28;20458;-73
2023/05/30 01:36:11;;;;;;;8.47;2.33;;;12.00;48.70;;;;;;5077872;28;20418;-74
2023/05/30 01:38:37;;;;;;;8.77;2.13;;;12.00;49.00;;;;;;5058329;28;20412;-72
2023/05/30 01:41:13;;;;;;;9.87;2.60;;;11.90;49.30;;;;;;5059708;28;20262;-75
2023/05/30 01:43:49;;;;;;;9.80;3.60;;;11.90;49.50;;;;;;5063994;28;20265;-74
2023/05/30 01:46:35;;;;;;;7.23;3.03;;;11.80;49.60;;;;;;5059589;28;20459;-74
2023/05/30 01:49:21;;;;;;;15.83;4.03;;;11.70;49.90;;;;;;5058742;28;20427;-74
2023/05/30 01:51:57;;;;;;;6.03;1.93;;;11.80;50.10;;;;;;5049139;28;20499;-74
2023/05/30 01:54:25;;;;;;;10.70;2.30;;;11.90;50.00;;;;;;5039311;28;20416;-73
2023/05/30 01:56:54;;;;;;;6.90;2.00;;;11.90;50.00;;;;;;5027781;28;20424;-75
2023/05/30 01:59:23;;;;;;;9.90;2.47;;;11.90;50.10;;;;;;5035035;28;20433;-74
2023/05/30 02:01:49;;;;;;;8.77;2.67;;;11.90;50.30;;;;;;5036086;28;20401;-74
2023/05/30 02:04:15;;;;;;;6.40;2.33;;;11.90;50.30;;;;;;5030272;28;20716;-75
2023/05/30 02:06:41;;;;;;;7.10;2.60;;;11.80;50.30;;;;;;5037484;28;20421;-74
2023/05/30 02:09:06;;;;;;;7.57;2.10;;;11.80;50.70;;;;;;5018758;28;20317;-73
2023/05/30 02:11:32;;;;;;;15.23;2.83;;;11.70;50.90;;;;;;5038836;28;20192;-74
2023/05/30 02:13:57;;;;;;;5.30;1.80;;;11.70;51.20;;;;;;5041390;28;20185;-75
2023/05/30 02:16:24;;;;;;;14.27;2.77;;;11.70;51.30;;;;;;5051826;28;20194;-74
2023/05/30 02:18:50;;;;;;;6.53;2.97;;;11.60;51.60;;;;;;5034927;28;20304;-74
2023/05/30 02:21:16;;;;;;;8.20;2.63;;;11.50;51.60;;;;;;5035567;28;20432;-75
2023/05/30 02:23:42;;;;;;;13.07;2.50;;;11.40;52.20;;;;;;5037093;28;20832;-73
2023/05/30 02:26:07;;;;;;;11.50;3.07;;;11.30;52.50;;;;;;5054102;28;20213;-74
2023/05/30 02:28:33;;;;;;;9.40;2.53;;;11.20;53.30;;;;;;5052161;28;20272;-74
2023/05/30 02:31:01;;;;;;;6.53;1.93;;;11.10;53.20;;;;;;5027975;28;20490;-74
2023/05/30 02:33:26;;;;;;;10.67;2.67;;;11.00;53.40;;;;;;5040528;28;20183;-73
2023/05/30 02:35:52;;;;;;;12.27;3.40;;;10.90;54.30;;;;;;5035745;28;20433;-75
2023/05/30 02:38:17;;;;;;;7.93;2.60;;;11.00;54.20;;;;;;5018664;28;20251;-75
2023/05/30 02:40:43;;;;;;;8.13;3.57;;;11.00;54.30;;;;;;5018692;28;20202;-74
2023/05/30 02:43:10;;;;;;;9.07;2.63;;;11.10;54.50;;;;;;5019156;28;20190;-73
2023/05/30 02:45:36;;;;;;;5.17;1.70;;;11.00;54.50;;;;;;5017402;28;20736;-74
2023/05/30 02:48:05;;;;;;;7.77;3.37;;;11.00;54.80;;;;;;5021311;28;20421;-74
2023/05/30 02:50:31;;;;;;;9.33;3.03;;;11.00;54.90;;;;;;5047183;28;20755;-74
2023/05/30 02:52:57;;;;;;;9.70;2.10;;;10.90;55.00;;;;;;5038177;28;20427;-73
2023/05/30 02:55:23;;;;;;;6.20;2.07;;;10.90;55.50;;;;;;5038018;28;20524;-73
2023/05/30 02:58:07;;;;;;;6.50;2.13;;;10.90;55.50;;;;;;5055053;28;20200;-74
2023/05/30 03:00:45;;;;;;;15.37;3.17;;;10.80;55.90;;;;;;5050973;28;20443;-75
2023/05/30 03:03:19;;;;;;;16.73;3.17;;;10.90;56.20;;;;;;5055393;28;20408;-73
2023/05/30 03:05:47;;;;;;;8.53;2.50;;;10.90;56.40;;;;;;5037996;28;20476;-74
2023/05/30 03:08:23;;;;;;;9.73;2.73;;;10.80;56.60;;;;;;5056459;28;20453;-74
2023/05/30 03:10:49;;;;;;;8.27;2.30;;;10.80;57.10;;;;;;5039018;28;20424;-75
2023/05/30 03:13:14;;;;;;;6.63;2.23;;;10.70;57.40;;;;;;5054457;28;20343;-74
2023/05/30 03:15:40;;;;;;;9.83;2.80;;;10.50;57.80;;;;;;5046795;28;20190;-73
2023/05/30 03:18:07;;;;;;;8.60;2.70;;;10.40;58.30;;;;;;5035700;28;20413;-73
2023/05/30 03:20:32;;;;;;;8.10;2.43;;;10.50;58.90;;;;;;5049793;28;20460;-73
2023/05/30 03:22:59;;;;;;;14.50;3.00;;;10.50;59.10;;;;;;5055927;28;20173;-75
2023/05/30 03:25:26;;;;;;;6.10;2.33;;;10.40;59.60;;;;;;5037911;28;20459;-74
2023/05/30 03:27:52;;;;;;;10.57;2.83;;;10.40;60.50;;;;;;5037986;28;20507;-74
2023/05/30 03:30:22;;;;;;;12.23;3.13;;;10.30;61.60;;;;;;5040892;28;20202;-74
2023/05/30 03:32:48;;;;;;;10.03;2.47;;;10.50;62.40;;;;;;5046512;28;20416;-75
2023/05/30 03:35:16;;;;;;;11.00;2.70;;;10.40;63.10;;;;;;5025885;28;20412;-73
2023/05/30 03:37:42;;;;;;;8.30;3.70;;;10.40;64.20;;;;;;5038565;28;20560;-73
2023/05/30 03:40:10;;;;;;;9.13;3.03;;;10.30;65.60;;;;;;5021494;28;20837;-73
2023/05/30 03:42:35;;;;;;;11.10;3.00;;;10.20;66.80;;;;;;5027910;28;20433;-74
2023/05/30 03:45:01;;;;;;;10.77;2.83;;;10.20;69.20;;;;;;5059144;28;20962;-74
2023/05/30 03:47:27;;;;;;;13.23;3.03;;;10.30;71.20;;;;;;5059800;28;20269;-74
2023/05/30 03:49:52;;;;;;;9.37;3.43;;;10.30;72.50;;;;;;5041265;28;20217;-75
2023/05/30 03:52:18;;;;;;;12.30;3.20;;;10.30;74.50;;;;;;5078053;28;20219;-74
2023/05/30 03:54:44;;;;;;;10.40;2.90;;;10.30;76.80;;;;;;5073447;28;20608;-74
2023/05/30 03:57:11;;;;;;;13.17;3.77;;;10.30;78.80;;;;;;5056974;28;20193;-74
2023/05/30 03:59:37;;;;;;;10.07;3.00;;;10.40;80.10;;;;;;5068808;28;20518;-74
2023/05/30 04:02:03;;;;;;;14.40;3.40;;;10.40;82.00;;;;;;5037897;28;20269;-73
2023/05/30 04:04:29;;;;;;;21.30;4.60;;;10.50;82.60;;;;;;5078799;28;20780;-75
2023/05/30 04:06:55;;;;;;;9.00;3.40;;;10.50;83.90;;;;;;5051602;28;20186;-74
2023/05/30 04:09:21;;;;;;;11.60;3.70;;;10.50;85.00;;;;;;5057445;28;20489;-75
2023/05/30 04:11:46;;;;;;;16.97;3.30;;;10.50;86.70;;;;;;5057600;28;20182;-74
2023/05/30 04:14:13;;;;;;;7.87;2.43;;;10.50;87.40;;;;;;5029069;28;20257;-74
2023/05/30 04:16:38;;;;;;;17.17;3.00;;;10.50;88.70;;;;;;5061543;28;20783;-75
2023/05/30 04:19:05;;;;;;;4.87;3.50;;;10.50;90.00;;;;;;5063738;28;20197;-74
2023/05/30 04:21:31;;;;;;;10.73;2.83;;;10.60;90.50;;;;;;5063516;28;20186;-74
2023/05/30 04:23:57;;;;;;;9.20;3.80;;;10.60;90.80;;;;;;5072923;28;20481;-75
2023/05/30 04:26:22;;;;;;;11.37;3.70;;;10.70;91.10;;;;;;5063879;28;20280;-75
2023/05/30 04:28:50;;;;;;;13.70;3.80;;;10.70;91.20;;;;;;5051477;28;20202;-74
2023/05/30 04:31:17;;;;;;;6.80;2.47;;;10.80;91.10;;;;;;5029101;28;20174;-74
2023/05/30 04:33:45;;;;;;;14.47;3.33;;;10.80;91.40;;;;;;5051241;28;20843;-74
2023/05/30 04:36:18;;;;;;;6.33;2.53;;;10.80;91.70;;;;;;5050090;28;20182;-74
2023/05/30 04:38:45;;;;;;;9.93;3.60;;;10.90;91.70;;;;;;5065530;28;20470;-74
2023/05/30 04:41:18;;;;;;;10.20;3.70;;;11.10;91.00;;;;;;5064018;28;20408;-75
2023/05/30 04:43:48;;;;;;;13.43;3.60;;;11.20;90.90;;;;;;5051152;28;20754;-75
2023/05/30 04:46:21;;;;;;;14.03;3.97;;;11.20;91.50;;;;;;5047867;28;20712;-77
2023/05/30 04:48:52;;;;;;;8.43;2.80;;;11.40;92.10;;;;;;5046515;28;20440;-75
2023/05/30 04:51:24;;;;;;;7.00;4.03;;;11.80;90.90;;;;;;5052742;28;20464;-74
2023/05/30 04:53:51;;;;;;;22.87;5.07;;;12.50;82.30;;;;;;5027368;28;20505;-75
2023/05/30 04:56:20;;;;;;;14.43;3.93;;;13.10;72.80;;;;;;5028150;28;20401;-76
2023/05/30 04:58:48;;;;;;;15.33;4.70;;;13.40;69.90;;;;;;5016814;28;20529;-75
2023/05/30 05:01:14;;;;;;;13.87;4.17;;;13.70;65.90;;;;;;5045068;28;20477;-75
2023/05/30 05:03:40;;;;;;;10.47;4.90;;;14.00;63.00;;;;;;5017687;28;20582;-75
2023/05/30 05:06:07;;;;;;;11.00;4.27;;;14.20;60.70;;;;;;5007832;28;20455;-75
2023/05/30 05:08:34;;;;;;;14.50;4.20;;;14.40;59.10;;;;;;5006906;28;20408;-74
2023/05/30 05:11:08;;;;;;;10.37;4.20;;;14.50;58.50;;;;;;5027679;28;20421;-76
2023/05/30 05:13:34;;;;;;;10.30;4.10;;;14.70;58.10;;;;;;5028589;28;20513;-74
2023/05/30 05:16:00;;;;;;;11.23;3.90;;;14.90;57.40;;;;;;5046145;28;20697;-75
2023/05/30 05:18:27;;;;;;;7.17;3.40;;;15.20;56.80;;;;;;5038567;28;20410;-75
2023/05/30 05:20:53;;;;;;;8.77;3.50;;;15.30;56.70;;;;;;5065669;28;20484;-76
2023/05/30 05:23:19;;;;;;;17.67;4.60;;;15.60;56.20;;;;;;5029193;28;20417;-75
2023/05/30 05:25:45;;;;;;;9.00;3.60;;;15.90;55.00;;;;;;5044405;28;20475;-76
2023/05/30 05:28:11;;;;;;;8.03;4.13;;;15.80;54.20;;;;;;5029109;28;20193;-75
2023/05/30 05:30:36;;;;;;;9.47;3.57;;;15.90;53.90;;;;;;5065151;23;20543;-77
2023/05/30 05:33:02;;;;;;;13.83;4.30;;;16.10;54.00;;;;;;5071833;28;20423;-75
2023/05/30 05:35:28;;;;;;;12.70;3.30;;;16.20;53.30;;;;;;5070736;28;20184;-77
2023/05/30 05:37:53;;;;;;;7.40;3.10;;;16.10;53.40;;;;;;5087871;28;20488;-77
2023/05/30 05:40:20;;;;;;;11.37;4.80;;;16.10;53.70;;;;;;5053974;28;20236;-76
2023/05/30 05:42:45;;;;;;;10.83;4.50;;;16.20;53.40;;;;;;5066933;28;20412;-75
2023/05/30 05:45:11;;;;;;;6.70;3.67;;;16.40;53.10;;;;;;5067828;28;20228;-76
2023/05/30 05:47:37;;;;;;;18.67;5.63;;;16.60;52.50;;;;;;5067024;28;20174;-77
2023/05/30 05:50:03;;;;;;;21.60;6.10;;;16.80;51.30;;;;;;5050978;28;20458;-76
2023/05/30 05:52:29;;;;;;;10.00;4.13;;;16.50;51.70;;;;;;5050389;28;20186;-75
2023/05/30 05:54:55;;;;;;;9.80;4.33;;;16.50;52.00;;;;;;5050381;28;20989;-78
2023/05/30 05:57:20;;;;;;;13.63;5.20;;;16.40;52.40;;;;;;5046093;28;20190;-75
2023/05/30 05:59:46;;;;;;;10.67;4.10;;;16.50;52.20;;;;;;5050073;28;20229;-77
2023/05/30 06:02:12;;;;;;;14.97;5.23;;;16.50;52.30;;;;;;5050689;28;20166;-76
2023/05/30 06:04:38;;;;;;;6.33;4.03;;;16.70;51.70;;;;;;5049602;28;20534;-76
2023/05/30 06:07:04;;;;;;;13.80;4.00;;;16.80;51.40;;;;;;5049648;28;20226;-76
2023/05/30 06:09:31;;;;;;;11.03;3.53;;;16.90;51.00;;;;;;5067123;28;20432;-76
2023/05/30 06:12:01;;;;;;;9.37;3.63;;;17.10;51.00;;;;;;5033588;28;20405;-75
2023/05/30 06:14:27;;;;;;;13.77;3.73;;;17.30;50.20;;;;;;5050041;28;20364;-77
2023/05/30 06:16:53;;;;;;;8.47;4.00;;;17.40;50.20;;;;;;5052013;28;20433;-76
2023/05/30 06:19:19;;;;;;;13.23;5.27;;;17.50;49.90;;;;;;5055182;28;20537;-76
2023/05/30 06:21:50;;;;;;;10.50;4.60;;;17.80;49.30;;;;;;5053072;28;20224;-78
2023/05/30 06:24:17;;;;;;;13.93;4.13;;;17.80;48.90;;;;;;5037813;28;20428;-77
2023/05/30 06:26:42;;;;;;;8.00;4.40;;;17.90;48.70;;;;;;5036902;28;20422;-76
2023/05/30 06:29:08;;;;;;;10.87;4.90;;;18.00;48.60;;;;;;5040803;28;20287;-76
2023/05/30 06:31:34;;;;;;;8.03;3.40;;;18.00;48.30;;;;;;5054009;28;20192;-75
2023/05/30 06:34:00;;;;;;;11.40;5.33;;;17.90;48.40;;;;;;5072178;28;20164;-79
2023/05/30 06:36:25;;;;;;;17.47;4.83;;;18.10;47.30;;;;;;5054282;28;20414;-77
2023/05/30 06:38:51;;;;;;;7.23;3.17;;;18.20;46.20;;;;;;5073544;28;20216;-78
2023/05/30 06:41:18;;;;;;;11.83;4.90;;;18.20;46.60;;;;;;5056173;28;20192;-77
2023/05/30 06:43:49;;;;;;;11.03;4.00;;;18.20;46.90;;;;;;5053651;28;20420;-77
2023/05/30 06:46:22;;;;;;;6.80;3.40;;;18.20;47.40;;;;;;5074338;28;20458;-78
2023/05/30 06:51:26;;;;;;;12.60;5.10;;;18.00;46.80;;;;;;5069371;28;20189;-77
2023/05/30 06:53:53;;;;;;;10.37;4.40;;;17.80;47.20;;;;;;5056299;28;20427;-79
2023/05/30 06:56:30;;;;;;;13.13;4.50;;;17.80;47.50;;;;;;5025915;28;20518;-78
2023/05/30 06:59:01;;;;;;;13.30;5.80;;;17.70;47.60;;;;;;5025846;28;20437;-78
2023/05/30 07:01:29;;;;;;;13.93;4.63;;;17.50;47.50;;;;;;5055215;28;20438;-77
2023/05/30 07:04:05;;;;;;;10.63;4.33;;;17.30;48.20;;;;;;5041004;28;20404;-77
2023/05/30 07:06:34;;;;;;;12.43;5.13;;;17.20;48.70;;;;;;5072495;28;20478;-77
2023/05/30 07:09:00;;;;;;;11.97;5.20;;;17.10;48.60;;;;;;5073759;28;20209;-78
2023/05/30 07:11:28;;;;;;;8.77;5.17;;;17.00;48.90;;;;;;5053278;28;20473;-78
2023/05/30 07:13:55;;;;;;;13.47;4.60;;;17.00;48.90;;;;;;5041344;28;20175;-77
2023/05/30 07:16:30;;;;;;;11.87;5.00;;;16.90;48.90;;;;;;5041699;28;20420;-77
2023/05/30 07:19:04;;;;;;;16.87;5.73;;;16.80;49.10;;;;;;5058830;28;20447;-78
2023/05/30 07:21:30;;;;;;;12.00;5.10;;;16.90;49.00;;;;;;5057081;28;20448;-78
2023/05/30 07:23:59;;;;;;;13.93;5.03;;;16.80;48.90;;;;;;5057966;28;20710;-78
2023/05/30 07:26:26;;;;;;;12.97;5.23;;;16.80;49.10;;;;;;5055364;28;20205;-78
2023/05/30 07:28:54;;;;;;;12.97;5.20;;;16.70;49.40;;;;;;5036728;28;20453;-78
2023/05/30 07:31:20;;;;;;;11.50;5.03;;;16.50;49.50;;;;;;5053715;28;20420;-79
2023/05/30 07:33:46;;;;;;;13.70;4.90;;;16.40;49.80;;;;;;5039266;28;20416;-77
2023/05/30 07:36:18;;;;;;;12.17;5.20;;;16.10;50.10;;;;;;5057136;28;20552;-77
2023/05/30 07:38:44;;;;;;;12.80;5.27;;;15.90;50.50;;;;;;5057678;28;20431;-77
2023/05/30 07:41:13;;;;;;;12.73;5.63;;;15.80;50.80;;;;;;5056936;28;20420;-77
2023/05/30 07:43:39;;;;;;;19.23;5.43;;;15.70;51.30;;;;;;5071656;28;20480;-78
2023/05/30 07:46:08;;;;;;;13.33;5.27;;;15.70;51.60;;;;;;5185463;23;20503;-77
2023/05/30 07:48:34;;;;;;;10.17;4.80;;;15.70;51.50;;;;;;5057459;28;20459;-76
2023/05/30 07:51:25;;;;;;;8.00;3.87;;;15.70;51.70;;;;;;5043140;28;20462;-78
2023/05/30 07:53:51;;;;;;;12.03;5.20;;;15.80;51.80;;;;;;5043275;28;20436;-78
2023/05/30 07:56:23;;;;;;;10.57;4.90;;;15.80;52.00;;;;;;5024633;28;20413;-78
2023/05/30 07:58:51;;;;;;;13.33;6.20;;;15.70;52.20;;;;;;5039900;28;20498;-76
2023/05/30 08:01:16;;;;;;;11.80;5.23;;;15.60;52.60;;;;;;5006737;28;20427;-76
2023/05/30 08:03:42;;;;;;;12.10;5.80;;;15.70;52.80;;;;;;5060430;28;20411;-78
2023/05/30 08:06:10;;;;;;;12.83;4.50;;;15.70;52.50;;;;;;5061212;28;20208;-78
2023/05/30 08:08:36;;;;;;;19.40;6.70;;;15.90;52.30;;;;;;5059402;28;20404;-77
2023/05/30 08:11:02;;;;;;;13.93;5.37;;;16.00;51.80;;;;;;5059728;28;20706;-77
2023/05/30 08:13:28;;;;;;;10.40;4.13;;;15.90;52.00;;;;;;5055948;28;20189;-77
2023/05/30 08:15:55;;;;;;;12.13;4.37;;;16.00;52.40;;;;;;5072953;28;20460;-77
2023/05/30 08:18:24;;;;;;;14.77;5.00;;;16.00;52.20;;;;;;5078056;28;20271;-76
2023/05/30 08:20:54;;;;;;;8.80;3.93;;;16.00;51.70;;;;;;5095846;28;20406;-76
2023/05/30 08:23:28;;;;;;;12.23;6.10;;;16.10;52.10;;;;;;5089063;28;20419;-78
2023/05/30 08:25:58;;;;;;;17.13;6.43;;;16.20;51.70;;;;;;5042834;28;20447;-78
2023/05/30 08:28:24;;;;;;;14.93;5.47;;;16.20;51.70;;;;;;5075711;28;20412;-75
2023/05/30 08:30:54;;;;;;;15.27;4.77;;;16.30;51.90;;;;;;5108353;28;20412;-76
2023/05/30 08:33:22;;;;;;;18.03;6.20;;;16.20;51.90;;;;;;5077891;28;20845;-77
2023/05/30 08:35:48;;;;;;;8.57;4.67;;;16.20;51.80;;;;;;5095879;28;20720;-76
2023/05/30 08:38:15;;;;;;;12.80;5.67;;;16.20;52.10;;;;;;5078349;28;20406;-78
2023/05/30 08:40:45;;;;;;;10.53;5.70;;;16.20;52.00;;;;;;5079551;28;20219;-78
2023/05/30 08:43:12;;;;;;;13.83;6.10;;;16.20;52.40;;;;;;5063020;28;20438;-78
2023/05/30 08:45:40;;;;;;;15.97;5.80;;;16.30;52.50;;;;;;5081874;28;20454;-78
2023/05/30 08:48:08;;;;;;;15.93;6.50;;;16.50;52.40;;;;;;5114241;28;20408;-78
2023/05/30 08:50:36;;;;;;;10.73;5.40;;;16.50;52.00;;;;;;5106820;28;20430;-78
2023/05/30 08:53:15;;;;;;;13.00;5.40;;;16.50;52.10;;;;;;5097670;28;20432;-76
2023/05/30 08:55:49;;;;;;;11.27;5.40;;;16.60;51.80;;;;;;5110297;28;20422;-79
2023/05/30 08:58:35;;;;;;;13.27;5.03;;;16.70;50.90;;;;;;5178816;22;20663;-78
2023/05/30 09:01:02;;;;;;;10.70;5.30;;;16.70;51.10;;;;;;5093676;28;20426;-79
2023/05/30 09:03:34;;;;;;;11.23;4.50;;;16.70;51.40;;;;;;5066263;28;20426;-79
2023/05/30 09:06:02;;;;;;;11.17;5.10;;;16.70;51.90;;;;;;5082598;28;20454;-78
2023/05/30 09:08:31;;;;;;;16.07;5.77;;;16.70;52.00;;;;;;5081444;28;20442;-80
2023/05/30 09:11:02;;;;;;;13.37;6.00;;;16.90;51.60;;;;;;5067093;28;20409;-78
2023/05/30 09:13:52;;;;;;;16.03;5.60;;;17.00;50.80;;;;;;5068267;28;20407;-81
2023/05/30 09:16:30;;;;;;;14.53;6.10;;;17.20;50.40;;;;;;5067397;28;20415;-79
2023/05/30 09:19:00;;;;;;;12.53;5.50;;;17.30;50.50;;;;;;5100229;28;20438;-80
2023/05/30 09:21:38;;;;;;;8.30;4.60;;;17.30;50.00;;;;;;5083295;28;20447;-79
2023/05/30 09:24:13;;;;;;;10.70;5.57;;;17.30;50.20;;;;;;5023974;28;20418;-80
2023/05/30 09:27:01;;;;;;;16.63;5.03;;;17.30;50.50;;;;;;5037502;28;20449;-80
2023/05/30 09:32:28;;;;;;;14.90;5.07;;;17.40;50.50;;;;;;2909064;22;20478;-80
2023/05/30 09:35:05;;;;;;;13.40;5.40;;;17.40;50.70;;;;;;5094651;28;20539;-80
2023/05/30 09:37:52;;;;;;;35.90;21.13;;;17.60;50.70;;;;;;5079207;28;20396;-78
2023/05/30 09:40:26;;;;;;;13.67;5.87;;;17.60;50.60;;;;;;5063288;28;20444;-77
2023/05/30 09:43:07;;;;;;;;;;;;;;;;;;;;;
2023/05/30 09:45:49;;;;;;;11.13;5.20;;;17.50;50.70;;;;;;5062507;28;20483;-78
2023/05/30 09:48:39;;;;;;;16.70;6.03;;;17.50;50.30;;;;;;5079238;28;20679;-79
2023/05/30 09:51:11;;;;;;;10.10;5.30;;;17.60;50.60;;;;;;5062647;28;20424;-79
2023/05/30 09:54:12;;;;;;;9.90;6.40;;;17.70;50.10;;;;;;5047988;28;20504;-79
2023/05/30 09:56:52;;;;;;;9.70;6.70;;;17.70;49.90;;;;;;5080689;28;20418;-78
2023/05/30 09:59:23;;;;;;;14.27;6.70;;;17.70;50.40;;;;;;5045387;28;20427;-79
2023/05/30 10:01:50;;;;;;;10.80;6.20;;;17.60;50.70;;;;;;5047603;28;20428;-78
2023/05/30 10:04:18;;;;;;;14.70;7.97;;;17.50;50.90;;;;;;5095895;28;20427;-78
2023/05/30 10:06:52;;;;;;;12.43;6.97;;;17.60;50.10;;;;;;5079018;28;20459;-79
2023/05/30 10:09:25;;;;;;;10.47;6.40;;;17.70;49.60;;;;;;5053223;28;20433;-79
2023/05/30 10:11:56;;;;;;;14.20;5.87;;;17.60;49.20;;;;;;5039084;28;20422;-79
2023/05/30 10:14:25;;;;;;;13.27;6.87;;;17.70;49.40;;;;;;5023703;28;20411;-80
2023/05/30 10:17:13;;;;;;;16.33;4.90;;;17.80;49.30;;;;;;4999984;28;20455;-80
2023/05/30 10:20:16;;;;;;;8.60;4.80;;;17.80;49.50;;;;;;4984740;28;20452;-79
2023/05/30 10:23:20;;;;;;;14.47;6.53;;;17.90;49.50;;;;;;4999705;28;20415;-79
2023/05/30 10:25:51;;;;;;;11.50;5.97;;;18.20;48.50;;;;;;4969144;28;20446;-82
2023/05/30 10:28:35;;;;;;;10.60;5.63;;;18.20;48.00;;;;;;5091538;22;20456;-79
2023/05/30 10:31:25;;;;;;;11.43;6.00;;;18.30;47.70;;;;;;5063686;28;20380;-80
2023/05/30 10:34:14;;;;;;;13.07;6.87;;;18.30;47.60;;;;;;5036563;28;20459;-80
2023/05/30 10:36:42;;;;;;;9.73;5.70;;;18.30;47.20;;;;;;5020556;28;20422;-79
2023/05/30 10:42:08;;;;;;;11.90;5.80;;;18.40;47.10;;;;;;5147634;22;20495;-79
2023/05/30 10:44:42;;;;;;;12.07;4.90;;;18.50;46.80;;;;;;5029985;28;20442;-80
2023/05/30 10:47:36;;;;;;;14.63;6.10;;;18.60;46.40;;;;;;5080163;28;20448;-81
2023/05/30 10:50:14;;;;;;;13.83;5.33;;;18.80;46.20;;;;;;5047760;28;20531;-79
2023/05/30 10:52:48;;;;;;;14.13;5.83;;;18.70;46.00;;;;;;5100906;28;20397;-80
2023/05/30 10:55:36;;;;;;;15.13;6.10;;;18.80;45.50;;;;;;5050144;28;20442;-78
2023/05/30 10:58:46;;;;;;;9.87;4.10;;;18.90;44.80;;;;;;5066574;28;20400;-79
2023/05/30 11:01:34;;;;;;;9.17;4.60;;;19.00;44.80;;;;;;5083506;28;20440;-80
2023/05/30 11:04:30;;;;;;;16.03;5.53;;;19.00;43.90;;;;;;5067313;28;20415;-80
2023/05/30 11:07:03;;;;;;;11.53;4.10;;;19.00;44.00;;;;;;5066988;28;20458;-81
2023/05/30 11:09:34;;;;;;;8.77;4.70;;;18.90;44.00;;;;;;5065911;28;20437;-79
2023/05/30 11:12:00;;;;;;;9.83;5.50;;;19.00;44.10;;;;;;5041895;28;20464;-80
2023/05/30 11:14:32;;;;;;;7.83;4.40;;;19.10;43.10;;;;;;5019180;28;20420;-79
2023/05/30 11:17:10;;;;;;;12.07;4.70;;;19.10;42.80;;;;;;5059004;28;20416;-80
2023/05/30 11:19:43;;;;;;;11.83;4.00;;;19.20;41.60;;;;;;5005477;28;20461;-78
2023/05/30 11:22:25;;;;;;;12.57;3.80;;;19.30;41.30;;;;;;5016046;28;20488;-79
2023/05/30 11:25:40;;;;;;;8.07;4.77;;;19.30;39.40;;;;;;5002967;28;20598;-79
2023/05/30 11:28:12;;;;;;;10.17;4.27;;;19.30;39.80;;;;;;5019382;28;20410;-78
2023/05/30 11:30:47;;;;;;;6.20;4.10;;;19.40;39.80;;;;;;5036644;28;20436;-78
2023/05/30 11:33:21;;;;;;;9.50;5.80;;;19.50;39.40;;;;;;4991018;28;20406;-80
2023/05/30 11:36:12;;;;;;;7.93;4.80;;;19.50;38.90;;;;;;5039195;28;20466;-80
2023/05/30 11:38:48;;;;;;;9.20;4.40;;;19.40;38.90;;;;;;5006671;28;20492;-80
2023/05/30 11:41:18;;;;;;;6.53;3.93;;;19.40;37.30;;;;;;5018231;28;20434;-78
2023/05/30 11:44:20;;;;;;;8.67;3.80;;;19.40;36.40;;;;;;5018706;28;20476;-80
2023/05/30 11:47:11;;;;;;;7.63;3.80;;;19.60;36.10;;;;;;5002646;28;20481;-81
2023/05/30 11:49:58;;;;;;;13.33;3.90;;;19.60;36.00;;;;;;5001765;28;20469;-79
2023/05/30 11:52:27;;;;;;;8.17;4.07;;;19.70;35.90;;;;;;4999977;28;20432;-79
2023/05/30 12:01:26;;;;;;;7.70;4.20;;;19.90;35.00;;;;;;5043682;26;20503;-78
2023/05/30 12:04:22;;;;;;;7.27;4.43;;;19.80;34.60;;;;;;5011488;28;20447;-80
2023/05/30 12:17:51;;;;;;;7.33;3.60;;;20.00;36.50;;;;;;4068707;22;20499;-79
2023/05/30 12:20:46;;;;;;;11.10;4.40;;;20.00;36.40;;;;;;5043300;28;20432;-80
2023/05/30 12:23:39;;;;;;;8.13;4.70;;;19.90;36.00;;;;;;5009070;28;20413;-80
2023/05/30 12:26:08;;;;;;;12.60;4.90;;;20.00;36.80;;;;;;5038167;28;20499;-79
2023/05/30 12:28:49;;;;;;;6.47;3.53;;;20.00;36.10;;;;;;4990163;28;20410;-79
2023/05/30 12:31:26;;;;;;;12.00;5.50;;;20.20;36.50;;;;;;5006186;28;20414;-78
2023/05/30 12:34:09;;;;;;;6.90;4.27;;;20.30;36.90;;;;;;5006399;28;20438;-78
2023/05/30 12:39:26;;;;;;;10.40;4.57;;;20.40;35.50;;;;;;4233853;26;20523;-80
2023/05/30 12:41:56;;;;;;;6.90;4.10;;;20.40;35.10;;;;;;5008926;28;20484;-80
2023/05/30 12:44:50;;;;;;;7.97;4.10;;;20.40;34.90;;;;;;5026183;28;20417;-81
2023/05/30 12:47:27;;;;;;;6.23;3.87;;;20.40;35.00;;;;;;5042809;28;20405;-77
2023/05/30 13:01:23;;;;;;;14.07;5.17;;;20.70;35.80;;;;;;4242246;26;20497;-80
2023/05/30 13:03:56;;;;;;;12.00;5.20;;;20.70;36.10;;;;;;5019633;28;20419;-80
2023/05/30 13:06:24;;;;;;;12.07;5.33;;;20.60;36.30;;;;;;4969907;28;20486;-80
2023/05/30 13:09:00;;;;;;;10.17;5.20;;;20.50;36.30;;;;;;5003396;28;20439;-79
2023/05/30 13:11:46;;;;;;;6.73;4.50;;;20.60;35.40;;;;;;5001787;28;20421;-80
2023/05/30 13:14:35;;;;;;;7.93;4.30;;;20.70;34.50;;;;;;4965029;28;20432;-80
2023/05/30 13:17:52;;;;;;;8.30;4.47;;;21.00;35.60;;;;;;4951002;28;20470;-80
2023/05/30 13:20:27;;;;;;;7.60;4.53;;;21.00;35.80;;;;;;4978916;28;20449;-80
2023/05/30 13:23:06;;;;;;;8.47;4.47;;;20.80;36.30;;;;;;4978894;28;20420;-79
2023/05/30 13:25:32;;;;;;;11.80;5.07;;;20.80;36.60;;;;;;4947436;28;20534;-80
2023/05/30 13:28:00;;;;;;;8.13;4.37;;;20.90;36.70;;;;;;4948021;29;20402;-81
2023/05/30 13:33:24;;;;;;;7.40;4.40;;;20.90;36.40;;;;;;5060176;23;20505;-81
2023/05/30 13:35:55;;;;;;;11.10;4.57;;;20.90;35.50;;;;;;4996976;28;20418;-80
2023/05/30 13:38:26;;;;;;;8.23;4.73;;;21.00;35.60;;;;;;5005178;28;20394;-80
2023/05/30 13:40:55;;;;;;;10.30;5.03;;;21.00;35.90;;;;;;4990221;28;20737;-79
2023/05/30 13:43:21;;;;;;;9.90;4.47;;;21.00;35.80;;;;;;4988974;28;20414;-79
2023/05/30 13:45:51;;;;;;;11.63;4.17;;;21.10;35.70;;;;;;5021671;28;20457;-80
2023/05/30 13:48:51;;;;;;;11.57;4.13;;;21.00;35.20;;;;;;5025582;28;20433;-78